sensor_id;sensor_type;location;lat;lon;timestamp;temperature;humidity
43995;DHT22;51687;52.160;5.298;2023-04-15T00:00:57;15.50;41.40
43995;DHT22;51687;52.160;5.298;2023-04-15T00:03:25;15.50;41.20
43995;DHT22;51687;52.160;5.298;2023-04-15T00:05:53;15.50;41.10
43995;DHT22;51687;52.160;5.298;2023-04-15T00:08:19;15.50;41.20
43995;DHT22;51687;52.160;5.298;2023-04-15T00:10:47;15.50;41.40
43995;DHT22;51687;52.160;5.298;2023-04-15T00:13:14;15.50;41.50
43995;DHT22;51687;52.160;5.298;2023-04-15T00:15:42;15.40;41.50
43995;DHT22;51687;52.160;5.298;2023-04-15T00:18:09;15.40;41.70
43995;DHT22;51687;52.160;5.298;2023-04-15T00:20:35;15.40;41.50
43995;DHT22;51687;52.160;5.298;2023-04-15T00:23:03;15.40;41.80
43995;DHT22;51687;52.160;5.298;2023-04-15T00:37:47;15.40;42.20
43995;DHT22;51687;52.160;5.298;2023-04-15T00:40:16;15.30;42.80
43995;DHT22;51687;52.160;5.298;2023-04-15T00:42:44;15.30;42.80
43995;DHT22;51687;52.160;5.298;2023-04-15T00:45:11;15.30;42.70
43995;DHT22;51687;52.160;5.298;2023-04-15T00:47:40;15.30;43.10
43995;DHT22;51687;52.160;5.298;2023-04-15T00:50:09;15.30;42.80
43995;DHT22;51687;52.160;5.298;2023-04-15T00:52:36;15.30;42.90
43995;DHT22;51687;52.160;5.298;2023-04-15T00:55:04;15.30;43.20
43995;DHT22;51687;52.160;5.298;2023-04-15T00:57:31;15.20;43.50
43995;DHT22;51687;52.160;5.298;2023-04-15T00:59:59;15.20;43.20
43995;DHT22;51687;52.160;5.298;2023-04-15T01:02:26;15.20;43.50
43995;DHT22;51687;52.160;5.298;2023-04-15T01:04:53;15.20;43.20
43995;DHT22;51687;52.160;5.298;2023-04-15T01:07:21;15.10;43.50
43995;DHT22;51687;52.160;5.298;2023-04-15T01:09:49;15.20;43.80
43995;DHT22;51687;52.160;5.298;2023-04-15T01:12:17;15.10;43.70
43995;DHT22;51687;52.160;5.298;2023-04-15T01:14:45;15.10;43.50
43995;DHT22;51687;52.160;5.298;2023-04-15T01:17:12;15.10;44.20
43995;DHT22;51687;52.160;5.298;2023-04-15T01:19:41;15.10;44.00
43995;DHT22;51687;52.160;5.298;2023-04-15T01:22:08;15.10;44.00
43995;DHT22;51687;52.160;5.298;2023-04-15T01:24:36;15.00;43.50
43995;DHT22;51687;52.160;5.298;2023-04-15T01:27:04;15.00;43.40
43995;DHT22;51687;52.160;5.298;2023-04-15T01:29:36;15.00;43.70
43995;DHT22;51687;52.160;5.298;2023-04-15T01:32:03;15.00;43.60
43995;DHT22;51687;52.160;5.298;2023-04-15T01:34:31;15.00;43.70
43995;DHT22;51687;52.160;5.298;2023-04-15T01:37:01;14.90;43.70
43995;DHT22;51687;52.160;5.298;2023-04-15T01:39:27;14.90;43.80
43995;DHT22;51687;52.160;5.298;2023-04-15T01:41:54;14.90;43.80
43995;DHT22;51687;52.160;5.298;2023-04-15T01:44:21;14.90;43.60
43995;DHT22;51687;52.160;5.298;2023-04-15T01:46:48;14.80;43.60
43995;DHT22;51687;52.160;5.298;2023-04-15T01:49:15;14.80;44.10
43995;DHT22;51687;52.160;5.298;2023-04-15T01:51:42;14.80;44.40
43995;DHT22;51687;52.160;5.298;2023-04-15T01:54:09;14.70;44.60
43995;DHT22;51687;52.160;5.298;2023-04-15T01:56:36;14.80;44.90
43995;DHT22;51687;52.160;5.298;2023-04-15T01:59:02;14.70;44.80
43995;DHT22;51687;52.160;5.298;2023-04-15T02:01:29;14.70;44.90
43995;DHT22;51687;52.160;5.298;2023-04-15T02:03:56;14.70;44.90
43995;DHT22;51687;52.160;5.298;2023-04-15T02:06:23;14.70;44.90
43995;DHT22;51687;52.160;5.298;2023-04-15T02:08:50;14.70;45.10
43995;DHT22;51687;52.160;5.298;2023-04-15T02:11:17;14.60;45.30
43995;DHT22;51687;52.160;5.298;2023-04-15T02:13:45;14.60;45.40
43995;DHT22;51687;52.160;5.298;2023-04-15T02:16:16;14.60;45.50
43995;DHT22;51687;52.160;5.298;2023-04-15T02:18:45;14.50;45.50
43995;DHT22;51687;52.160;5.298;2023-04-15T02:21:13;14.50;45.60
43995;DHT22;51687;52.160;5.298;2023-04-15T02:23:40;14.50;45.70
43995;DHT22;51687;52.160;5.298;2023-04-15T02:26:07;14.50;45.60
43995;DHT22;51687;52.160;5.298;2023-04-15T02:28:33;14.50;45.50
43995;DHT22;51687;52.160;5.298;2023-04-15T02:31:07;14.40;45.60
43995;DHT22;51687;52.160;5.298;2023-04-15T02:33:35;14.40;45.70
43995;DHT22;51687;52.160;5.298;2023-04-15T02:36:03;14.40;45.90
43995;DHT22;51687;52.160;5.298;2023-04-15T02:38:29;14.40;46.10
43995;DHT22;51687;52.160;5.298;2023-04-15T02:40:57;14.40;46.40
43995;DHT22;51687;52.160;5.298;2023-04-15T02:43:25;14.40;46.30
43995;DHT22;51687;52.160;5.298;2023-04-15T02:45:52;14.30;46.40
43995;DHT22;51687;52.160;5.298;2023-04-15T02:48:18;14.30;46.60
43995;DHT22;51687;52.160;5.298;2023-04-15T02:50:46;14.20;46.60
43995;DHT22;51687;52.160;5.298;2023-04-15T02:53:13;14.20;46.70
43995;DHT22;51687;52.160;5.298;2023-04-15T02:55:40;14.20;46.60
43995;DHT22;51687;52.160;5.298;2023-04-15T02:58:08;14.20;46.80
43995;DHT22;51687;52.160;5.298;2023-04-15T03:00:35;14.10;46.80
43995;DHT22;51687;52.160;5.298;2023-04-15T03:03:03;14.10;47.00
43995;DHT22;51687;52.160;5.298;2023-04-15T03:05:31;14.10;47.30
43995;DHT22;51687;52.160;5.298;2023-04-15T03:07:58;14.10;47.30
43995;DHT22;51687;52.160;5.298;2023-04-15T03:10:26;14.00;47.20
43995;DHT22;51687;52.160;5.298;2023-04-15T03:12:53;14.00;47.20
43995;DHT22;51687;52.160;5.298;2023-04-15T03:15:20;14.00;47.30
43995;DHT22;51687;52.160;5.298;2023-04-15T03:17:46;13.90;47.40
43995;DHT22;51687;52.160;5.298;2023-04-15T03:20:15;13.90;47.60
43995;DHT22;51687;52.160;5.298;2023-04-15T03:22:42;13.80;47.70
43995;DHT22;51687;52.160;5.298;2023-04-15T03:25:09;13.80;47.80
43995;DHT22;51687;52.160;5.298;2023-04-15T03:27:37;13.80;47.90
43995;DHT22;51687;52.160;5.298;2023-04-15T03:30:04;13.80;48.00
43995;DHT22;51687;52.160;5.298;2023-04-15T03:37:26;13.70;48.00
43995;DHT22;51687;52.160;5.298;2023-04-15T03:39:53;13.70;48.50
43995;DHT22;51687;52.160;5.298;2023-04-15T03:42:19;13.70;48.50
43995;DHT22;51687;52.160;5.298;2023-04-15T03:44:46;13.60;48.40
43995;DHT22;51687;52.160;5.298;2023-04-15T03:47:13;13.60;48.50
43995;DHT22;51687;52.160;5.298;2023-04-15T03:49:40;13.60;48.50
43995;DHT22;51687;52.160;5.298;2023-04-15T03:52:06;13.60;48.50
43995;DHT22;51687;52.160;5.298;2023-04-15T03:54:33;13.60;48.70
43995;DHT22;51687;52.160;5.298;2023-04-15T03:57:00;13.60;48.70
43995;DHT22;51687;52.160;5.298;2023-04-15T04:01:54;13.50;48.70
43995;DHT22;51687;52.160;5.298;2023-04-15T04:04:21;13.50;48.90
43995;DHT22;51687;52.160;5.298;2023-04-15T04:06:48;13.50;48.80
43995;DHT22;51687;52.160;5.298;2023-04-15T04:09:14;13.50;49.00
43995;DHT22;51687;52.160;5.298;2023-04-15T04:11:41;13.40;49.30
43995;DHT22;51687;52.160;5.298;2023-04-15T04:14:08;13.40;49.30
43995;DHT22;51687;52.160;5.298;2023-04-15T04:16:34;13.30;49.40
43995;DHT22;51687;52.160;5.298;2023-04-15T04:19:01;13.30;49.50
43995;DHT22;51687;52.160;5.298;2023-04-15T04:21:29;13.30;49.70
43995;DHT22;51687;52.160;5.298;2023-04-15T04:23:56;13.30;49.70
43995;DHT22;51687;52.160;5.298;2023-04-15T04:26:23;13.30;49.70
43995;DHT22;51687;52.160;5.298;2023-04-15T04:28:49;13.30;49.90
43995;DHT22;51687;52.160;5.298;2023-04-15T04:31:16;13.20;49.80
43995;DHT22;51687;52.160;5.298;2023-04-15T04:33:43;13.20;49.80
43995;DHT22;51687;52.160;5.298;2023-04-15T04:36:09;13.20;49.80
43995;DHT22;51687;52.160;5.298;2023-04-15T04:38:36;13.20;50.10
43995;DHT22;51687;52.160;5.298;2023-04-15T04:41:03;13.20;50.10
43995;DHT22;51687;52.160;5.298;2023-04-15T04:43:29;13.20;50.30
43995;DHT22;51687;52.160;5.298;2023-04-15T04:45:56;13.10;50.40
43995;DHT22;51687;52.160;5.298;2023-04-15T04:48:23;13.10;50.70
43995;DHT22;51687;52.160;5.298;2023-04-15T04:50:50;13.10;51.00
43995;DHT22;51687;52.160;5.298;2023-04-15T04:53:16;13.10;51.20
43995;DHT22;51687;52.160;5.298;2023-04-15T04:55:44;13.00;51.30
43995;DHT22;51687;52.160;5.298;2023-04-15T04:58:11;13.00;51.50
43995;DHT22;51687;52.160;5.298;2023-04-15T05:00:39;13.00;51.70
43995;DHT22;51687;52.160;5.298;2023-04-15T05:03:06;12.90;51.80
43995;DHT22;51687;52.160;5.298;2023-04-15T05:05:33;12.90;51.90
43995;DHT22;51687;52.160;5.298;2023-04-15T05:08:01;12.90;52.00
43995;DHT22;51687;52.160;5.298;2023-04-15T05:10:28;12.90;52.10
43995;DHT22;51687;52.160;5.298;2023-04-15T05:12:56;12.90;52.20
43995;DHT22;51687;52.160;5.298;2023-04-15T05:15:23;12.90;52.50
43995;DHT22;51687;52.160;5.298;2023-04-15T05:17:50;12.90;52.40
43995;DHT22;51687;52.160;5.298;2023-04-15T05:20:17;12.80;52.60
43995;DHT22;51687;52.160;5.298;2023-04-15T05:22:43;12.80;52.70
43995;DHT22;51687;52.160;5.298;2023-04-15T05:25:10;12.80;52.70
43995;DHT22;51687;52.160;5.298;2023-04-15T05:27:37;12.80;52.70
43995;DHT22;51687;52.160;5.298;2023-04-15T05:30:04;12.80;52.80
43995;DHT22;51687;52.160;5.298;2023-04-15T05:32:31;12.80;52.70
43995;DHT22;51687;52.160;5.298;2023-04-15T05:34:58;12.80;52.70
43995;DHT22;51687;52.160;5.298;2023-04-15T05:37:25;12.80;52.70
43995;DHT22;51687;52.160;5.298;2023-04-15T05:39:51;12.80;52.70
43995;DHT22;51687;52.160;5.298;2023-04-15T05:42:18;12.80;52.70
43995;DHT22;51687;52.160;5.298;2023-04-15T05:44:48;12.90;52.70
43995;DHT22;51687;52.160;5.298;2023-04-15T05:47:15;12.90;52.80
43995;DHT22;51687;52.160;5.298;2023-04-15T05:49:42;12.90;52.80
43995;DHT22;51687;52.160;5.298;2023-04-15T05:52:08;12.90;52.80
43995;DHT22;51687;52.160;5.298;2023-04-15T05:54:36;12.90;52.80
43995;DHT22;51687;52.160;5.298;2023-04-15T05:57:04;12.90;52.80
43995;DHT22;51687;52.160;5.298;2023-04-15T05:59:31;12.90;52.80
43995;DHT22;51687;52.160;5.298;2023-04-15T06:01:58;12.90;52.80
43995;DHT22;51687;52.160;5.298;2023-04-15T06:04:24;12.90;52.90
43995;DHT22;51687;52.160;5.298;2023-04-15T06:06:52;12.90;53.10
43995;DHT22;51687;52.160;5.298;2023-04-15T06:09:18;12.90;53.20
43995;DHT22;51687;52.160;5.298;2023-04-15T06:11:45;12.90;53.30
43995;DHT22;51687;52.160;5.298;2023-04-15T06:14:12;12.90;53.30
43995;DHT22;51687;52.160;5.298;2023-04-15T06:16:39;12.90;53.40
43995;DHT22;51687;52.160;5.298;2023-04-15T06:19:05;12.90;53.40
43995;DHT22;51687;52.160;5.298;2023-04-15T06:21:32;12.90;53.50
43995;DHT22;51687;52.160;5.298;2023-04-15T06:23:59;12.90;53.50
43995;DHT22;51687;52.160;5.298;2023-04-15T06:26:29;12.90;53.70
43995;DHT22;51687;52.160;5.298;2023-04-15T06:28:56;12.90;53.90
43995;DHT22;51687;52.160;5.298;2023-04-15T06:31:23;12.80;54.10
43995;DHT22;51687;52.160;5.298;2023-04-15T06:33:50;12.80;54.40
43995;DHT22;51687;52.160;5.298;2023-04-15T06:36:17;12.80;54.50
43995;DHT22;51687;52.160;5.298;2023-04-15T06:38:44;12.80;54.60
43995;DHT22;51687;52.160;5.298;2023-04-15T06:41:11;12.80;54.70
43995;DHT22;51687;52.160;5.298;2023-04-15T06:43:38;12.80;54.80
43995;DHT22;51687;52.160;5.298;2023-04-15T06:46:05;12.80;55.00
43995;DHT22;51687;52.160;5.298;2023-04-15T06:48:32;12.90;55.20
43995;DHT22;51687;52.160;5.298;2023-04-15T06:50:59;12.90;55.40
43995;DHT22;51687;52.160;5.298;2023-04-15T06:53:26;12.90;55.40
43995;DHT22;51687;52.160;5.298;2023-04-15T06:55:53;12.90;55.60
43995;DHT22;51687;52.160;5.298;2023-04-15T06:58:20;12.90;55.80
43995;DHT22;51687;52.160;5.298;2023-04-15T07:00:47;12.90;55.90
43995;DHT22;51687;52.160;5.298;2023-04-15T07:03:14;12.90;56.10
43995;DHT22;51687;52.160;5.298;2023-04-15T07:05:41;13.00;56.40
43995;DHT22;51687;52.160;5.298;2023-04-15T07:08:09;13.00;56.50
43995;DHT22;51687;52.160;5.298;2023-04-15T07:10:35;13.00;56.60
43995;DHT22;51687;52.160;5.298;2023-04-15T07:13:03;13.00;56.70
43995;DHT22;51687;52.160;5.298;2023-04-15T07:15:31;13.10;56.80
43995;DHT22;51687;52.160;5.298;2023-04-15T07:17:57;13.20;56.80
43995;DHT22;51687;52.160;5.298;2023-04-15T07:20:24;13.30;56.70
43995;DHT22;51687;52.160;5.298;2023-04-15T07:22:51;13.30;56.70
43995;DHT22;51687;52.160;5.298;2023-04-15T07:25:18;13.40;56.30
43995;DHT22;51687;52.160;5.298;2023-04-15T07:27:45;13.40;56.40
43995;DHT22;51687;52.160;5.298;2023-04-15T07:30:13;13.50;56.30
43995;DHT22;51687;52.160;5.298;2023-04-15T07:32:40;13.50;56.20
43995;DHT22;51687;52.160;5.298;2023-04-15T07:35:08;13.60;56.30
43995;DHT22;51687;52.160;5.298;2023-04-15T07:37:35;13.70;56.20
43995;DHT22;51687;52.160;5.298;2023-04-15T07:40:02;13.70;56.10
43995;DHT22;51687;52.160;5.298;2023-04-15T07:42:30;13.70;56.10
43995;DHT22;51687;52.160;5.298;2023-04-15T07:44:57;13.80;55.90
43995;DHT22;51687;52.160;5.298;2023-04-15T07:47:24;13.80;55.90
43995;DHT22;51687;52.160;5.298;2023-04-15T07:49:51;13.90;56.30
43995;DHT22;51687;52.160;5.298;2023-04-15T07:52:18;14.00;55.50
43995;DHT22;51687;52.160;5.298;2023-04-15T07:54:45;14.10;55.40
43995;DHT22;51687;52.160;5.298;2023-04-15T07:57:11;14.20;54.80
43995;DHT22;51687;52.160;5.298;2023-04-15T07:59:38;14.30;54.20
43995;DHT22;51687;52.160;5.298;2023-04-15T08:04:34;14.30;54.10
43995;DHT22;51687;52.160;5.298;2023-04-15T08:09:28;14.50;54.20
43995;DHT22;51687;52.160;5.298;2023-04-15T08:34:06;14.70;53.40
43995;DHT22;51687;52.160;5.298;2023-04-15T08:36:33;15.50;52.10
43995;DHT22;51687;52.160;5.298;2023-04-15T08:39:00;15.60;51.90
43995;DHT22;51687;52.160;5.298;2023-04-15T08:46:33;15.60;52.00
43995;DHT22;51687;52.160;5.298;2023-04-15T08:49:04;15.80;50.40
43995;DHT22;51687;52.160;5.298;2023-04-15T08:51:31;15.80;50.50
43995;DHT22;51687;52.160;5.298;2023-04-15T08:53:59;15.90;50.40
43995;DHT22;51687;52.160;5.298;2023-04-15T12:58:32;16.00;52.10
43995;DHT22;51687;52.160;5.298;2023-04-15T13:00:59;17.90;46.80
43995;DHT22;51687;52.160;5.298;2023-04-15T13:03:25;17.90;46.10
43995;DHT22;51687;52.160;5.298;2023-04-15T17:54:30;17.90;46.80
43995;DHT22;51687;52.160;5.298;2023-04-15T17:56:57;17.10;46.80
43995;DHT22;51687;52.160;5.298;2023-04-15T17:59:25;17.10;47.10
43995;DHT22;51687;52.160;5.298;2023-04-15T18:01:51;17.10;46.90
43995;DHT22;51687;52.160;5.298;2023-04-15T18:04:18;17.00;47.10
43995;DHT22;51687;52.160;5.298;2023-04-15T18:06:45;17.00;48.00
43995;DHT22;51687;52.160;5.298;2023-04-15T18:09:12;17.00;47.40
43995;DHT22;51687;52.160;5.298;2023-04-15T18:11:39;17.00;47.50
43995;DHT22;51687;52.160;5.298;2023-04-15T18:14:06;16.90;47.40
43995;DHT22;51687;52.160;5.298;2023-04-15T18:16:33;16.90;47.80
43995;DHT22;51687;52.160;5.298;2023-04-15T18:19:00;16.90;47.80
43995;DHT22;51687;52.160;5.298;2023-04-15T18:21:28;16.90;47.80
43995;DHT22;51687;52.160;5.298;2023-04-15T18:23:55;16.80;48.00
43995;DHT22;51687;52.160;5.298;2023-04-15T18:26:22;16.90;48.00
43995;DHT22;51687;52.160;5.298;2023-04-15T18:28:49;16.90;48.00
43995;DHT22;51687;52.160;5.298;2023-04-15T18:31:16;16.90;48.40
43995;DHT22;51687;52.160;5.298;2023-04-15T18:33:43;16.90;48.30
43995;DHT22;51687;52.160;5.298;2023-04-15T18:36:11;16.80;48.10
43995;DHT22;51687;52.160;5.298;2023-04-15T18:38:37;16.80;47.60
43995;DHT22;51687;52.160;5.298;2023-04-15T18:41:04;16.80;48.10
43995;DHT22;51687;52.160;5.298;2023-04-15T18:43:34;16.80;47.80
43995;DHT22;51687;52.160;5.298;2023-04-15T18:46:01;16.80;47.80
43995;DHT22;51687;52.160;5.298;2023-04-15T18:48:29;16.80;47.70
43995;DHT22;51687;52.160;5.298;2023-04-15T18:50:56;16.80;47.60
43995;DHT22;51687;52.160;5.298;2023-04-15T18:53:25;16.80;47.60
43995;DHT22;51687;52.160;5.298;2023-04-15T18:55:52;16.80;47.80
43995;DHT22;51687;52.160;5.298;2023-04-15T18:58:19;16.80;49.30
43995;DHT22;51687;52.160;5.298;2023-04-15T19:00:47;16.80;48.20
43995;DHT22;51687;52.160;5.298;2023-04-15T19:03:13;16.80;47.60
43995;DHT22;51687;52.160;5.298;2023-04-15T19:05:41;16.80;47.70
43995;DHT22;51687;52.160;5.298;2023-04-15T19:08:08;16.80;48.10
43995;DHT22;51687;52.160;5.298;2023-04-15T19:10:37;16.80;47.80
43995;DHT22;51687;52.160;5.298;2023-04-15T19:13:03;16.80;47.90
43995;DHT22;51687;52.160;5.298;2023-04-15T19:15:30;16.80;48.20
43995;DHT22;51687;52.160;5.298;2023-04-15T19:17:57;16.80;48.10
43995;DHT22;51687;52.160;5.298;2023-04-15T19:20:24;16.80;48.10
43995;DHT22;51687;52.160;5.298;2023-04-15T19:22:50;16.70;48.90
43995;DHT22;51687;52.160;5.298;2023-04-15T19:25:19;16.80;48.70
43995;DHT22;51687;52.160;5.298;2023-04-15T19:27:46;16.80;49.70
43995;DHT22;51687;52.160;5.298;2023-04-15T19:30:12;16.80;49.00
43995;DHT22;51687;52.160;5.298;2023-04-15T19:32:39;16.70;49.10
43995;DHT22;51687;52.160;5.298;2023-04-15T19:35:06;16.70;49.10
43995;DHT22;51687;52.160;5.298;2023-04-15T19:37:36;16.70;49.60
43995;DHT22;51687;52.160;5.298;2023-04-15T19:40:04;16.70;49.50
43995;DHT22;51687;52.160;5.298;2023-04-15T19:42:30;16.60;49.60
43995;DHT22;51687;52.160;5.298;2023-04-15T19:44:58;16.60;50.00
43995;DHT22;51687;52.160;5.298;2023-04-15T19:47:26;16.60;50.00
43995;DHT22;51687;52.160;5.298;2023-04-15T19:49:53;16.60;49.90
43995;DHT22;51687;52.160;5.298;2023-04-15T19:52:20;16.70;50.00
43995;DHT22;51687;52.160;5.298;2023-04-15T19:54:47;16.70;49.70
43995;DHT22;51687;52.160;5.298;2023-04-15T19:57:14;16.60;49.50
43995;DHT22;51687;52.160;5.298;2023-04-15T19:59:41;16.60;49.80
43995;DHT22;51687;52.160;5.298;2023-04-15T20:02:08;16.60;49.60
43995;DHT22;51687;52.160;5.298;2023-04-15T20:04:35;16.70;49.60
43995;DHT22;51687;52.160;5.298;2023-04-15T20:07:02;16.70;49.60
43995;DHT22;51687;52.160;5.298;2023-04-15T20:09:30;16.70;49.70
43995;DHT22;51687;52.160;5.298;2023-04-15T20:11:56;16.70;49.50
43995;DHT22;51687;52.160;5.298;2023-04-15T20:14:43;16.70;49.30
43995;DHT22;51687;52.160;5.298;2023-04-15T20:17:10;16.70;49.60
43995;DHT22;51687;52.160;5.298;2023-04-15T20:19:37;16.70;49.80
43995;DHT22;51687;52.160;5.298;2023-04-15T20:22:04;16.70;49.80
43995;DHT22;51687;52.160;5.298;2023-04-15T20:24:31;16.70;49.80
43995;DHT22;51687;52.160;5.298;2023-04-15T20:26:58;16.70;49.90
43995;DHT22;51687;52.160;5.298;2023-04-15T20:29:25;16.70;49.80
43995;DHT22;51687;52.160;5.298;2023-04-15T20:31:51;16.70;49.90
43995;DHT22;51687;52.160;5.298;2023-04-15T20:34:18;16.70;49.60
43995;DHT22;51687;52.160;5.298;2023-04-15T20:36:46;16.70;49.50
43995;DHT22;51687;52.160;5.298;2023-04-15T20:39:13;16.70;50.20
43995;DHT22;51687;52.160;5.298;2023-04-15T20:41:39;16.80;50.00
43995;DHT22;51687;52.160;5.298;2023-04-15T20:44:06;16.70;49.50
43995;DHT22;51687;52.160;5.298;2023-04-15T20:46:33;16.70;49.70
43995;DHT22;51687;52.160;5.298;2023-04-15T20:49:00;16.70;49.90
43995;DHT22;51687;52.160;5.298;2023-04-15T20:51:26;16.70;49.90
43995;DHT22;51687;52.160;5.298;2023-04-15T20:53:53;16.70;50.10
43995;DHT22;51687;52.160;5.298;2023-04-15T20:56:21;16.70;50.00
43995;DHT22;51687;52.160;5.298;2023-04-15T20:58:47;16.70;49.90
43995;DHT22;51687;52.160;5.298;2023-04-15T21:01:14;16.70;50.10
43995;DHT22;51687;52.160;5.298;2023-04-15T21:03:41;16.70;50.10
43995;DHT22;51687;52.160;5.298;2023-04-15T21:06:08;16.70;49.80
43995;DHT22;51687;52.160;5.298;2023-04-15T21:08:34;16.60;49.80
43995;DHT22;51687;52.160;5.298;2023-04-15T21:13:28;16.50;50.30
43995;DHT22;51687;52.160;5.298;2023-04-15T21:20:59;16.20;50.70
43995;DHT22;51687;52.160;5.298;2023-04-15T21:23:27;15.90;51.50
43995;DHT22;51687;52.160;5.298;2023-04-15T21:25:55;15.90;51.70
43995;DHT22;51687;52.160;5.298;2023-04-15T21:28:23;15.80;52.00
43995;DHT22;51687;52.160;5.298;2023-04-15T21:30:53;15.70;52.30
43995;DHT22;51687;52.160;5.298;2023-04-15T21:33:21;15.70;52.50
43995;DHT22;51687;52.160;5.298;2023-04-15T21:35:48;15.60;52.80
43995;DHT22;51687;52.160;5.298;2023-04-15T21:38:14;15.60;53.00
43995;DHT22;51687;52.160;5.298;2023-04-15T21:40:42;15.50;53.30
43995;DHT22;51687;52.160;5.298;2023-04-15T21:43:09;15.50;53.60
43995;DHT22;51687;52.160;5.298;2023-04-15T21:45:36;15.50;54.00
43995;DHT22;51687;52.160;5.298;2023-04-15T21:48:05;15.40;54.20
43995;DHT22;51687;52.160;5.298;2023-04-15T21:50:37;15.40;54.40
43995;DHT22;51687;52.160;5.298;2023-04-15T21:53:06;15.30;55.00
43995;DHT22;51687;52.160;5.298;2023-04-15T21:55:34;15.30;55.20
43995;DHT22;51687;52.160;5.298;2023-04-15T22:00:29;15.30;55.40
43995;DHT22;51687;52.160;5.298;2023-04-15T22:02:55;15.20;55.60
43995;DHT22;51687;52.160;5.298;2023-04-15T22:05:23;15.20;55.70
43995;DHT22;51687;52.160;5.298;2023-04-15T22:07:50;15.20;55.90
43995;DHT22;51687;52.160;5.298;2023-04-15T22:10:17;15.20;56.00
43995;DHT22;51687;52.160;5.298;2023-04-15T22:12:45;15.10;56.10
43995;DHT22;51687;52.160;5.298;2023-04-15T22:15:11;15.10;56.30
43995;DHT22;51687;52.160;5.298;2023-04-15T22:17:38;15.10;56.40
43995;DHT22;51687;52.160;5.298;2023-04-15T22:22:32;15.10;56.60
43995;DHT22;51687;52.160;5.298;2023-04-15T22:25:10;15.00;56.70
43995;DHT22;51687;52.160;5.298;2023-04-15T22:27:37;15.00;57.50
43995;DHT22;51687;52.160;5.298;2023-04-15T22:30:05;15.00;57.10
43995;DHT22;51687;52.160;5.298;2023-04-15T22:32:31;15.00;57.10
43995;DHT22;51687;52.160;5.298;2023-04-15T22:34:58;14.90;57.20
43995;DHT22;51687;52.160;5.298;2023-04-15T22:37:25;14.90;57.40
43995;DHT22;51687;52.160;5.298;2023-04-15T22:39:56;14.90;57.70
43995;DHT22;51687;52.160;5.298;2023-04-15T22:42:23;14.90;57.90
43995;DHT22;51687;52.160;5.298;2023-04-15T22:44:50;14.90;58.10
43995;DHT22;51687;52.160;5.298;2023-04-15T22:47:17;14.90;58.30
43995;DHT22;51687;52.160;5.298;2023-04-15T22:49:44;14.90;58.40
43995;DHT22;51687;52.160;5.298;2023-04-15T22:52:11;14.90;58.40
43995;DHT22;51687;52.160;5.298;2023-04-15T22:54:55;14.90;58.60
43995;DHT22;51687;52.160;5.298;2023-04-15T22:57:22;14.80;58.80
43995;DHT22;51687;52.160;5.298;2023-04-15T22:59:48;14.80;59.00
43995;DHT22;51687;52.160;5.298;2023-04-15T23:02:15;14.80;59.10
43995;DHT22;51687;52.160;5.298;2023-04-15T23:04:42;14.70;59.40
43995;DHT22;51687;52.160;5.298;2023-04-15T23:07:09;14.80;59.50
43995;DHT22;51687;52.160;5.298;2023-04-15T23:09:37;14.80;59.60
43995;DHT22;51687;52.160;5.298;2023-04-15T23:14:31;14.70;59.70
43995;DHT22;51687;52.160;5.298;2023-04-15T23:16:58;14.70;60.00
43995;DHT22;51687;52.160;5.298;2023-04-15T23:19:25;14.60;60.10
43995;DHT22;51687;52.160;5.298;2023-04-15T23:21:52;14.60;60.30
43995;DHT22;51687;52.160;5.298;2023-04-15T23:24:19;14.60;60.40
43995;DHT22;51687;52.160;5.298;2023-04-15T23:26:45;14.60;61.00
43995;DHT22;51687;52.160;5.298;2023-04-15T23:29:12;14.60;60.50
43995;DHT22;51687;52.160;5.298;2023-04-15T23:31:39;14.60;60.50
43995;DHT22;51687;52.160;5.298;2023-04-15T23:34:07;14.60;60.70
43995;DHT22;51687;52.160;5.298;2023-04-15T23:36:34;14.60;60.80
43995;DHT22;51687;52.160;5.298;2023-04-15T23:39:00;14.60;60.90
43995;DHT22;51687;52.160;5.298;2023-04-15T23:41:27;14.60;60.90
43995;DHT22;51687;52.160;5.298;2023-04-15T23:43:54;14.60;61.00
43995;DHT22;51687;52.160;5.298;2023-04-15T23:46:21;14.60;61.10
43995;DHT22;51687;52.160;5.298;2023-04-15T23:48:48;14.60;61.20
43995;DHT22;51687;52.160;5.298;2023-04-15T23:51:15;14.60;61.50
43995;DHT22;51687;52.160;5.298;2023-04-15T23:53:42;14.60;61.50
43995;DHT22;51687;52.160;5.298;2023-04-15T23:56:09;14.60;61.60
43995;DHT22;51687;52.160;5.298;2023-04-15T23:58:36;14.60;61.80
